Pineville, New York
Current Conditions -  °F | °C
As of 11:15 AM on Monday 22 Dec 2014 (Local Time) from KMSV Reporting Station
Overcast Overcast  
Wind Chill: 24°   Ceiling: 200
Heat Index: 30°   Visibility: 0mi
Dew Point: 30°   Wind: 6mph
Humidity: 100%   Direction: 100°E
Pressure: 30.29"   Gusts: NA
Location:  42.1536°N, 75.1637°W
Report Text: KMSV 221615Z AUTO 10005KT M1/4SM OVC002 M01/M01 A3029 RMK AO1
Loading
Personal Weather Stations






























Interactive Weather Map New forecast layout! Learn more

10-Day Weather Forecast

Advertisements
Track Severe Weather on mobile